createdAt,value
2019-04-05T00:00:30.661Z,10.53
2019-04-05T00:02:59.659Z,11.33
2019-04-05T00:05:28.837Z,10.20
2019-04-05T00:07:57.893Z,10.60
2019-04-05T00:10:26.971Z,10.97
2019-04-05T00:12:56.362Z,10.20
2019-04-05T00:15:25.421Z,9.80
2019-04-05T00:18:13.705Z,10.67
2019-04-05T00:20:42.816Z,10.37
2019-04-05T00:23:11.893Z,10.33
2019-04-05T00:25:40.875Z,10.50
2019-04-05T00:28:09.879Z,10.30
2019-04-05T00:30:38.843Z,10.27
2019-04-05T00:33:07.949Z,10.87
2019-04-05T00:35:37.563Z,10.87
2019-04-05T00:38:06.648Z,10.80
2019-04-05T00:40:36.098Z,11.13
2019-04-05T00:43:05.160Z,10.43
2019-04-05T00:45:34.295Z,11.07
2019-04-05T00:48:03.261Z,10.80
2019-04-05T00:50:32.275Z,11.00
2019-04-05T00:53:01.399Z,9.80
2019-04-05T00:55:30.359Z,10.80
2019-04-05T00:57:59.273Z,10.67
2019-04-05T01:00:28.775Z,10.60
2019-04-05T01:02:58.238Z,10.93
2019-04-05T01:05:27.421Z,10.23
2019-04-05T01:07:56.795Z,10.63
2019-04-05T01:10:25.816Z,11.43
2019-04-05T01:12:54.754Z,10.53
2019-04-05T01:15:24.158Z,11.00
2019-04-05T01:17:53.873Z,10.90
2019-04-05T01:20:25.113Z,11.53
2019-04-05T01:22:54.449Z,10.70
2019-04-05T01:25:23.357Z,11.13
2019-04-05T01:27:52.382Z,10.73
2019-04-05T01:30:21.493Z,10.93
2019-04-05T01:32:50.607Z,10.97
2019-04-05T01:35:20.761Z,11.57
2019-04-05T01:37:49.756Z,11.07
2019-04-05T01:40:19.157Z,10.77
2019-04-05T01:42:48.555Z,10.73
2019-04-05T01:45:17.584Z,11.20
2019-04-05T01:47:46.827Z,11.17
2019-04-05T01:50:16.359Z,11.67
2019-04-05T01:52:45.787Z,11.40
2019-04-05T01:55:15.735Z,11.37
2019-04-05T01:57:45.014Z,12.10
2019-04-05T02:00:14.374Z,11.77
2019-04-05T02:02:43.410Z,11.17
2019-04-05T02:05:15.707Z,11.20
2019-04-05T02:07:45.031Z,11.60
2019-04-05T02:10:14.559Z,11.70
2019-04-05T02:12:43.837Z,11.93
2019-04-05T02:15:23.855Z,11.20
2019-04-05T02:17:53.215Z,12.30
2019-04-05T02:20:24.309Z,10.83
2019-04-05T02:22:53.241Z,10.57
2019-04-05T02:25:22.349Z,12.03
2019-04-05T02:27:51.627Z,11.60
2019-04-05T02:30:20.844Z,11.07
2019-04-05T02:32:50.026Z,11.50
2019-04-05T02:35:19.373Z,11.53
2019-04-05T02:37:48.635Z,11.57
2019-04-05T02:40:18.205Z,12.40
2019-04-05T02:42:50.514Z,11.87
2019-04-05T02:45:20.437Z,12.07
2019-04-05T02:47:52.928Z,12.30
2019-04-05T02:50:25.260Z,11.87
2019-04-05T02:52:59.317Z,11.60
2019-04-05T02:55:29.345Z,11.07
2019-04-05T02:58:01.322Z,12.30
2019-04-05T03:00:32.478Z,11.70
2019-04-05T03:03:03.955Z,11.60
2019-04-05T03:05:33.770Z,12.07
2019-04-05T03:08:03.048Z,12.07
2019-04-05T03:10:56.073Z,11.50
2019-04-05T03:13:26.850Z,12.13
2019-04-05T03:15:59.317Z,12.17
2019-04-05T03:18:30.622Z,11.70
2019-04-05T03:21:02.995Z,11.77
2019-04-05T03:23:37.667Z,12.13
2019-04-05T03:26:08.583Z,12.07
2019-04-05T03:28:40.527Z,12.07
2019-04-05T03:31:10.062Z,12.73
2019-04-05T03:33:39.167Z,12.23
2019-04-05T03:36:08.522Z,13.40
2019-04-05T03:38:37.632Z,12.17
2019-04-05T03:41:07.042Z,12.23
2019-04-05T03:43:36.708Z,12.03
2019-04-05T03:46:06.297Z,11.80
2019-04-05T03:48:35.493Z,12.63
2019-04-05T03:51:04.630Z,12.43
2019-04-05T03:53:33.694Z,12.07
2019-04-05T03:56:03.181Z,12.00
2019-04-05T03:58:32.363Z,12.67
2019-04-05T04:01:01.629Z,12.93
2019-04-05T04:03:31.029Z,11.57
2019-04-05T04:06:00.208Z,13.03
2019-04-05T04:08:29.562Z,11.97
2019-04-05T04:10:58.892Z,13.07
2019-04-05T04:13:28.227Z,13.20
2019-04-05T04:15:57.552Z,13.43
2019-04-05T04:18:26.904Z,12.50
2019-04-05T04:21:00.619Z,13.17
2019-04-05T04:23:30.788Z,12.37
2019-04-05T04:26:00.059Z,12.90
2019-04-05T04:28:29.533Z,13.07
2019-04-05T04:31:02.207Z,12.43
2019-04-05T04:33:32.523Z,12.47
2019-04-05T04:36:01.965Z,12.63
2019-04-05T04:38:32.056Z,12.97
2019-04-05T04:41:01.936Z,13.03
2019-04-05T04:43:31.264Z,12.93
2019-04-05T04:46:01.095Z,12.30
2019-04-05T04:48:31.367Z,12.60
2019-04-05T04:51:00.975Z,12.43
2019-04-05T04:53:30.519Z,12.40
2019-04-05T04:55:59.773Z,12.57
2019-04-05T04:58:28.922Z,13.07
2019-04-05T05:01:01.984Z,13.73
2019-04-05T05:03:34.134Z,13.37
2019-04-05T05:06:04.515Z,12.70
2019-04-05T05:08:49.388Z,12.90
2019-04-05T05:11:20.826Z,13.43
2019-04-05T05:13:49.932Z,13.53
2019-04-05T05:16:19.374Z,13.47
2019-04-05T05:19:03.559Z,13.57
2019-04-05T05:21:33.177Z,14.50
2019-04-05T05:24:03.077Z,13.40
2019-04-05T05:26:32.793Z,13.63
2019-04-05T05:29:02.044Z,12.87
2019-04-05T05:31:31.281Z,12.60
2019-04-05T05:34:00.810Z,13.37
2019-04-05T05:36:30.179Z,13.43
2019-04-05T05:38:59.642Z,13.13
2019-04-05T05:41:29.058Z,13.43
2019-04-05T05:43:58.181Z,13.87
2019-04-05T05:46:27.250Z,14.13
2019-04-05T05:48:56.688Z,14.50
2019-04-05T05:51:25.730Z,14.27
2019-04-05T05:53:54.811Z,13.77
2019-04-05T05:56:23.792Z,14.27
2019-04-05T05:58:58.867Z,14.00
2019-04-05T06:01:25.183Z,13.80
2019-04-05T06:03:54.298Z,14.43
2019-04-05T06:06:23.350Z,14.20
2019-04-05T06:08:59.089Z,15.00
2019-04-05T06:11:28.330Z,15.80
2019-04-05T06:13:57.804Z,15.00
2019-04-05T06:16:28.132Z,14.50
2019-04-05T06:18:57.332Z,14.63
2019-04-05T06:21:26.430Z,14.83
2019-04-05T06:23:55.622Z,14.97
2019-04-05T06:26:24.660Z,15.20
2019-04-05T06:28:54.562Z,14.87
2019-04-05T06:31:24.924Z,15.57
2019-04-05T06:33:54.662Z,16.67
2019-04-05T06:36:24.969Z,15.60
2019-04-05T06:38:54.599Z,15.97
2019-04-05T06:41:28.492Z,16.80
2019-04-05T06:44:02.620Z,17.17
2019-04-05T06:46:32.231Z,16.43
2019-04-05T06:49:01.583Z,17.83
2019-04-05T06:51:30.619Z,19.27
2019-04-05T06:53:59.714Z,18.90
2019-04-05T06:56:29.720Z,21.07
2019-04-05T06:58:58.707Z,20.90
2019-04-05T07:01:27.878Z,22.47
2019-04-05T07:03:57.351Z,24.20
2019-04-05T07:06:26.901Z,24.50
2019-04-05T07:08:56.294Z,24.67
2019-04-05T07:11:25.360Z,25.80
2019-04-05T07:13:56.495Z,28.03
2019-04-05T07:16:25.591Z,34.47
2019-04-05T07:18:54.892Z,29.30
2019-04-05T07:21:23.970Z,27.63
2019-04-05T07:23:53.166Z,29.83
2019-04-05T07:26:22.472Z,30.03
2019-04-05T07:28:52.859Z,39.53
2019-04-05T07:31:22.084Z,39.57
2019-04-05T07:33:52.743Z,50.40
2019-04-05T07:36:22.258Z,44.13
2019-04-05T07:38:51.537Z,35.83
2019-04-05T07:41:20.528Z,33.03
2019-04-05T07:43:49.701Z,32.97
2019-04-05T07:46:18.758Z,32.57
2019-04-05T07:48:49.881Z,31.67
2019-04-05T07:51:23.683Z,35.33
2019-04-05T07:53:52.820Z,30.60
2019-04-05T07:56:22.085Z,28.43
2019-04-05T07:58:53.832Z,29.63
2019-04-05T08:01:23.508Z,30.17
2019-04-05T08:03:52.527Z,30.97
2019-04-05T08:06:21.615Z,30.90
2019-04-05T08:08:58.090Z,31.00
2019-04-05T08:11:29.042Z,32.23
2019-04-05T08:14:00.890Z,33.23
2019-04-05T08:16:30.538Z,34.87
2019-04-05T08:19:00.560Z,33.23
2019-04-05T08:21:30.082Z,37.80
2019-04-05T08:23:59.241Z,50.03
2019-04-05T08:26:29.082Z,38.00
2019-04-05T08:28:58.117Z,34.40
2019-04-05T08:31:27.118Z,34.20
2019-04-05T08:33:56.363Z,32.80
2019-04-05T08:36:25.458Z,33.67
2019-04-05T08:38:54.496Z,31.30
2019-04-05T08:41:23.782Z,33.03
2019-04-05T08:43:53.032Z,33.90
2019-04-05T08:46:22.160Z,32.47
2019-04-05T08:48:52.424Z,46.60
2019-04-05T08:51:21.687Z,45.97
2019-04-05T08:53:50.877Z,33.73
2019-04-05T08:56:20.286Z,33.00
2019-04-05T08:58:49.471Z,35.20
2019-04-05T09:01:21.647Z,34.03
2019-04-05T09:03:50.839Z,31.80
2019-04-05T09:06:22.121Z,32.33
2019-04-05T09:08:51.463Z,32.73
2019-04-05T09:11:20.687Z,32.50
2019-04-05T09:13:52.377Z,34.13
2019-04-05T09:16:21.954Z,35.57
2019-04-05T09:18:51.114Z,38.10
2019-04-05T09:21:20.377Z,32.13
2019-04-05T09:23:49.443Z,30.57
2019-04-05T09:26:18.588Z,31.70
2019-04-05T09:28:48.275Z,28.07
2019-04-05T09:31:17.647Z,29.57
2019-04-05T09:33:46.838Z,32.50
2019-04-05T09:36:18.305Z,33.20
2019-04-05T09:38:47.850Z,32.33
2019-04-05T09:41:17.325Z,30.07
2019-04-05T09:46:46.441Z,31.33
2019-04-05T09:49:10.540Z,31.20
2019-04-05T09:51:39.604Z,33.57
2019-04-05T09:54:08.716Z,32.10
2019-04-05T09:56:37.924Z,43.53
2019-04-05T09:59:06.989Z,40.50
2019-04-05T10:01:36.084Z,36.33
2019-04-05T10:04:05.227Z,34.93
2019-04-05T10:06:34.376Z,32.83
2019-04-05T10:09:04.802Z,33.63
2019-04-05T10:11:34.691Z,34.13
2019-04-05T10:14:03.860Z,34.47
2019-04-05T10:16:32.994Z,42.03
2019-04-05T10:19:02.409Z,38.87
2019-04-05T10:21:31.674Z,36.60
2019-04-05T10:24:00.619Z,37.10
2019-04-05T10:26:29.965Z,36.87
2019-04-05T10:28:59.176Z,38.37
2019-04-05T10:31:28.471Z,37.13
2019-04-05T10:33:57.657Z,35.60
2019-04-05T10:36:27.878Z,36.93
2019-04-05T10:38:57.104Z,49.00
2019-04-05T10:41:26.373Z,43.20
2019-04-05T10:43:58.229Z,37.33
2019-04-05T10:46:26.261Z,37.30
2019-04-05T10:49:05.026Z,36.17
2019-04-05T10:51:34.109Z,38.77
2019-04-05T10:54:03.230Z,37.97
2019-04-05T10:56:32.230Z,36.17
2019-04-05T10:59:01.664Z,36.47
2019-04-05T11:01:30.942Z,53.00
2019-04-05T11:04:00.823Z,44.47
2019-04-05T11:06:30.182Z,35.87
2019-04-05T11:08:59.222Z,34.00
2019-04-05T11:11:28.830Z,33.73
2019-04-05T11:13:57.834Z,33.63
2019-04-05T11:16:26.925Z,32.93
2019-04-05T11:19:02.284Z,33.93
2019-04-05T11:21:32.074Z,31.00
2019-04-05T11:24:01.770Z,31.03
2019-04-05T11:26:39.231Z,37.53
2019-04-05T11:29:07.904Z,36.83
2019-04-05T11:31:56.781Z,33.23
2019-04-05T11:34:19.563Z,29.67
2019-04-05T11:36:48.847Z,31.97
2019-04-05T11:39:20.251Z,31.27
2019-04-05T11:41:52.173Z,80.63
2019-04-05T11:44:22.655Z,78.33
2019-04-05T11:46:52.554Z,41.77
2019-04-05T11:49:22.295Z,29.33
2019-04-05T11:51:51.389Z,29.07
2019-04-05T11:54:20.459Z,27.30
2019-04-05T11:56:49.985Z,28.87
2019-04-05T11:59:19.530Z,36.67
2019-04-05T12:02:07.931Z,31.77
2019-04-05T12:04:37.409Z,28.93
2019-04-05T12:07:07.288Z,28.47
2019-04-05T12:09:36.317Z,27.80
2019-04-05T12:12:05.520Z,25.77
2019-04-05T12:14:36.709Z,27.23
2019-04-05T12:17:06.199Z,27.90
2019-04-05T12:19:38.150Z,26.63
2019-04-05T12:22:09.138Z,27.63
2019-04-05T12:24:38.607Z,28.27
2019-04-05T12:27:08.141Z,35.40
2019-04-05T12:29:37.438Z,35.70
2019-04-05T12:32:07.017Z,30.67
2019-04-05T12:34:36.628Z,28.30
2019-04-05T12:37:06.204Z,32.23
2019-04-05T12:39:37.167Z,34.40
2019-04-05T12:42:06.364Z,32.60
2019-04-05T12:44:35.524Z,31.53
2019-04-05T12:47:04.997Z,29.47
2019-04-05T12:49:34.069Z,31.67
2019-04-05T12:52:03.247Z,37.63
2019-04-05T12:54:32.518Z,30.83
2019-04-05T12:57:01.784Z,29.97
2019-04-05T12:59:31.319Z,29.33
2019-04-05T13:02:00.609Z,28.30
2019-04-05T13:04:29.768Z,29.20
2019-04-05T13:07:03.954Z,30.87
2019-04-05T13:09:33.131Z,29.17
2019-04-05T13:12:02.229Z,28.87
2019-04-05T13:14:36.659Z,29.83
2019-04-05T13:17:06.918Z,28.73
2019-04-05T13:19:36.905Z,28.30
2019-04-05T13:22:06.554Z,28.93
2019-04-05T13:24:39.390Z,27.23
2019-04-05T13:27:06.935Z,29.03
2019-04-05T13:29:36.205Z,27.67
2019-04-05T13:32:06.437Z,47.90
2019-04-05T13:34:35.626Z,36.57
2019-04-05T13:37:04.910Z,30.57
2019-04-05T13:39:34.308Z,29.77
2019-04-05T13:42:04.196Z,28.33
2019-04-05T13:44:33.527Z,27.40
2019-04-05T13:47:03.031Z,28.30
2019-04-05T13:49:32.487Z,28.77
2019-04-05T13:52:01.749Z,30.10
2019-04-05T13:54:31.157Z,28.40
2019-04-05T13:57:00.501Z,29.93
2019-04-05T13:59:29.721Z,30.07
2019-04-05T14:02:06.002Z,28.50
2019-04-05T14:04:29.995Z,29.50
2019-04-05T14:06:59.187Z,29.57
2019-04-05T14:09:28.395Z,29.70
2019-04-05T14:11:57.569Z,28.90
2019-04-05T14:14:28.387Z,28.57
2019-04-05T14:16:58.260Z,27.03
2019-04-05T14:19:28.987Z,28.70
2019-04-05T14:22:08.208Z,28.87
2019-04-05T14:24:31.010Z,28.63
2019-04-05T14:27:02.931Z,29.50
2019-04-05T14:29:33.182Z,28.93
2019-04-05T14:32:19.474Z,29.47
2019-04-05T14:34:36.447Z,28.67
2019-04-05T14:37:05.694Z,28.17
2019-04-05T14:39:34.918Z,28.07
2019-04-05T14:42:10.128Z,30.77
2019-04-05T14:44:35.081Z,27.57
2019-04-05T14:47:04.290Z,29.20
2019-04-05T14:49:33.382Z,29.50
2019-04-05T14:52:02.511Z,28.83
2019-04-05T14:54:31.897Z,27.83
2019-04-05T14:57:05.486Z,30.87
2019-04-05T14:59:32.882Z,28.57
2019-04-05T15:02:02.270Z,28.47
2019-04-05T15:04:31.588Z,29.20
2019-04-05T15:07:01.429Z,28.20
2019-04-05T15:09:30.514Z,28.93
2019-04-05T15:11:59.898Z,29.57
2019-04-05T15:14:29.112Z,28.03
2019-04-05T15:16:58.433Z,27.70
2019-04-05T15:19:27.701Z,28.50
2019-04-05T15:22:05.648Z,30.00
2019-04-05T15:24:29.103Z,27.87
2019-04-05T15:26:58.239Z,28.10
2019-04-05T15:29:27.317Z,27.13
2019-04-05T15:31:58.143Z,29.10
2019-04-05T15:34:29.175Z,28.13
2019-04-05T15:37:01.670Z,28.53
2019-04-05T15:39:32.293Z,28.50
2019-04-05T15:42:05.604Z,28.80
2019-04-05T15:44:34.944Z,27.60
2019-04-05T15:47:06.193Z,28.17
2019-04-05T15:49:35.892Z,28.23
2019-04-05T15:52:18.136Z,29.33
2019-04-05T15:54:37.853Z,27.87
2019-04-05T15:57:07.166Z,28.00
2019-04-05T15:59:36.231Z,28.13
2019-04-05T16:02:05.440Z,28.33
2019-04-05T16:04:35.764Z,27.60
2019-04-05T16:07:05.033Z,29.10
2019-04-05T16:09:34.420Z,27.83
2019-04-05T16:12:03.562Z,28.37
2019-04-05T16:14:40.592Z,28.90
2019-04-05T16:17:12.441Z,28.73
2019-04-05T16:19:40.515Z,29.83
2019-04-05T16:22:09.644Z,28.50
2019-04-05T16:24:38.826Z,30.00
2019-04-05T16:27:08.626Z,28.77
2019-04-05T16:29:37.732Z,29.20
2019-04-05T16:32:07.195Z,29.03
2019-04-05T16:34:36.170Z,28.97
2019-04-05T16:37:05.536Z,28.70
2019-04-05T16:39:38.184Z,29.43
2019-04-05T16:42:10.111Z,29.87
2019-04-05T16:44:38.492Z,28.97
2019-04-05T16:47:08.378Z,30.27
2019-04-05T16:49:38.231Z,29.73
2019-04-05T16:52:07.601Z,30.13
2019-04-05T16:54:37.102Z,28.60
2019-04-05T16:57:07.323Z,30.10
2019-04-05T16:59:37.645Z,28.30
2019-04-05T17:02:07.239Z,29.03
2019-04-05T17:04:36.524Z,29.17
2019-04-05T17:07:05.706Z,29.37
2019-04-05T17:09:34.829Z,29.10
2019-04-05T17:12:03.943Z,28.83
2019-04-05T17:14:33.272Z,30.20
2019-04-05T17:17:02.464Z,30.37
2019-04-05T17:19:31.672Z,29.40
2019-04-05T17:22:00.985Z,27.37
2019-04-05T17:24:30.327Z,28.83
2019-04-05T17:26:59.745Z,29.60
2019-04-05T17:29:29.089Z,29.20
2019-04-05T17:31:58.286Z,29.07
2019-04-05T17:34:27.592Z,28.37
2019-04-05T17:36:57.007Z,28.30
2019-04-05T17:39:26.662Z,27.93
2019-04-05T17:41:57.535Z,29.97
2019-04-05T17:44:26.769Z,28.33
2019-04-05T17:46:56.251Z,28.53
2019-04-05T17:49:26.711Z,28.73
2019-04-05T17:51:56.273Z,28.53
2019-04-05T17:54:25.940Z,29.07
2019-04-05T17:56:55.073Z,28.57
2019-04-05T17:59:24.396Z,29.10
2019-04-05T18:01:53.507Z,30.23
2019-04-05T18:04:22.734Z,29.70
2019-04-05T18:06:51.955Z,29.13
2019-04-05T18:09:21.108Z,27.80
2019-04-05T18:11:50.439Z,29.23
2019-04-05T18:14:19.605Z,29.43
2019-04-05T18:16:48.797Z,27.13
2019-04-05T18:19:17.942Z,29.80
2019-04-05T18:21:47.075Z,30.17
2019-04-05T18:24:16.293Z,30.37
2019-04-05T18:26:45.443Z,30.37
2019-04-05T18:29:14.482Z,28.80
2019-04-05T18:31:43.987Z,29.57
2019-04-05T18:34:13.075Z,30.27
2019-04-05T18:36:42.185Z,28.23
2019-04-05T18:39:11.689Z,29.97
2019-04-05T18:41:40.839Z,30.83
2019-04-05T18:44:10.299Z,29.63
2019-04-05T18:46:39.726Z,30.27
2019-04-05T18:49:11.614Z,29.97
2019-04-05T18:51:41.104Z,30.47
2019-04-05T18:54:10.474Z,30.07
2019-04-05T18:56:41.247Z,31.10
2019-04-05T18:59:10.375Z,30.30
2019-04-05T19:01:40.043Z,30.47
2019-04-05T19:04:09.121Z,31.07
2019-04-05T19:06:38.543Z,30.67
2019-04-05T19:09:08.353Z,30.10
2019-04-05T19:11:37.724Z,31.43
2019-04-05T19:14:06.940Z,32.93
2019-04-05T19:16:38.181Z,32.33
2019-04-05T19:19:07.722Z,31.20
2019-04-05T19:21:36.998Z,29.67
2019-04-05T19:24:06.437Z,31.00
2019-04-05T19:26:36.562Z,31.17
2019-04-05T19:29:06.184Z,32.53
2019-04-05T19:49:16.597Z,29.27
2019-04-05T19:51:45.822Z,29.07
2019-04-05T19:54:15.115Z,30.33
2019-04-05T19:56:44.895Z,29.83
2019-04-05T19:59:14.069Z,29.33
2019-04-05T20:01:43.234Z,30.10
2019-04-05T20:04:12.250Z,30.63
2019-04-05T20:06:41.622Z,29.43
2019-04-05T20:09:10.973Z,30.67
2019-04-05T20:11:40.253Z,29.47
2019-04-05T20:14:09.438Z,30.33
2019-04-05T20:16:38.838Z,29.00
2019-04-05T20:19:07.923Z,30.43
2019-04-05T20:21:37.587Z,30.77
2019-04-05T20:24:14.206Z,30.23
2019-04-05T20:26:37.603Z,31.47
2019-04-05T20:29:06.986Z,30.03
2019-04-05T20:31:36.178Z,30.77
2019-04-05T20:34:14.694Z,29.40
2019-04-05T20:36:44.003Z,30.70
2019-04-05T20:39:13.410Z,31.27
2019-04-05T20:41:42.477Z,29.40
2019-04-05T20:44:11.623Z,60.67
2019-04-05T20:46:40.820Z,55.83
2019-04-05T20:49:11.917Z,36.00
2019-04-05T20:51:41.420Z,34.33
2019-04-05T20:54:11.655Z,63.20
2019-04-05T20:56:40.827Z,89.60
2019-04-05T20:59:10.059Z,76.97
2019-04-05T21:01:39.581Z,71.53
2019-04-05T21:04:08.637Z,65.63
2019-04-05T21:06:37.884Z,66.57
2019-04-05T21:09:08.401Z,35.17
2019-04-05T21:11:37.772Z,42.10
2019-04-05T21:14:06.830Z,52.23
2019-04-05T21:16:35.919Z,54.37
2019-04-05T21:19:05.168Z,42.33
2019-04-05T21:21:37.504Z,32.40
2019-04-05T21:24:06.711Z,54.37
2019-04-05T21:26:35.743Z,54.43
2019-04-05T21:29:04.976Z,53.90
2019-04-05T21:31:34.542Z,43.03
2019-04-05T21:34:03.764Z,44.53
2019-04-05T21:36:32.825Z,45.40
2019-04-05T21:39:02.238Z,49.37
2019-04-05T21:41:31.375Z,31.70
2019-04-05T21:44:00.643Z,32.03
2019-04-05T21:46:32.180Z,31.23
2019-04-05T21:49:01.282Z,30.93
2019-04-05T21:51:30.474Z,31.63
2019-04-05T21:53:59.666Z,31.87
2019-04-05T21:56:29.012Z,31.43
2019-04-05T21:58:58.216Z,33.20
2019-04-05T22:01:27.569Z,33.10
2019-04-05T22:03:57.406Z,30.90
2019-04-05T22:06:26.684Z,33.93
2019-04-05T22:08:56.224Z,31.40
2019-04-05T22:11:27.636Z,31.93
2019-04-05T22:13:57.307Z,36.03
2019-04-05T22:16:27.303Z,74.83
2019-04-05T22:18:56.418Z,49.30
2019-04-05T22:21:25.923Z,43.83
2019-04-05T22:23:56.446Z,39.00
2019-04-05T22:26:25.520Z,43.27
2019-04-05T22:28:54.450Z,42.37
2019-04-05T22:31:23.474Z,39.80
2019-04-05T22:33:52.519Z,37.53
2019-04-05T22:36:21.636Z,36.90
2019-04-05T22:38:50.868Z,35.33
2019-04-05T22:41:20.310Z,33.50
2019-04-05T22:43:51.714Z,34.43
2019-04-05T22:46:20.760Z,34.00
2019-04-05T22:48:49.905Z,31.97
2019-04-05T22:51:18.974Z,35.80
2019-04-05T22:53:48.050Z,32.80
2019-04-05T22:56:17.162Z,32.03
2019-04-05T22:58:47.293Z,34.07
2019-04-05T23:01:16.364Z,33.07
2019-04-05T23:03:45.382Z,36.07
2019-04-05T23:06:14.425Z,33.77
2019-04-05T23:08:43.554Z,33.07
2019-04-05T23:11:12.789Z,31.67
2019-04-05T23:13:42.126Z,33.30
2019-04-05T23:16:11.233Z,39.53
2019-04-05T23:18:40.215Z,46.97
2019-04-05T23:21:09.216Z,54.30
2019-04-05T23:23:38.200Z,48.93
2019-04-05T23:26:07.234Z,52.43
2019-04-05T23:28:36.328Z,53.30
2019-04-05T23:31:05.374Z,125.20
2019-04-05T23:33:34.433Z,102.60
2019-04-05T23:36:03.733Z,98.87
2019-04-05T23:38:32.946Z,61.57
2019-04-05T23:41:04.281Z,110.13
2019-04-05T23:43:33.554Z,91.90
2019-04-05T23:46:02.602Z,77.83
2019-04-05T23:48:31.740Z,57.10
2019-04-05T23:51:01.598Z,51.10
2019-04-05T23:53:30.639Z,44.83
2019-04-05T23:55:59.528Z,45.90
2019-04-05T23:58:28.789Z,41.73
